Time;durP1;ratioP1;P1;durP2;ratioP2;P2;SDS_P1;SDS_P2;PMS_P1;PMS_P2;Temp;Humidity;BMP_temperature;BMP_pressure;BME280_temperature;BME280_humidity;BME280_pressure;Samples;Min_cycle;Max_cycle;Signal;HPM_P1;HPM_P2
2022/10/21 00:01:04;;;;;;;6.55;3.42;;;;;;;;;;5037164;28;20885;-81
2022/10/21 00:03:29;;;;;;;7.03;3.22;;;;;;;;;;5031286;28;20062;-80
2022/10/21 00:05:54;;;;;;;4.78;3.13;;;;;;;;;;5027908;28;20017;-80
2022/10/21 00:08:20;;;;;;;7.95;3.47;;;;;;;;;;5028261;28;20108;-79
2022/10/21 00:10:49;;;;;;;4.93;2.97;;;;;;;;;;5026575;28;20039;-81
2022/10/21 00:13:14;;;;;;;5.97;2.80;;;;;;;;;;5027068;28;20024;-80
2022/10/21 00:15:39;;;;;;;6.13;3.10;;;;;;;;;;5025856;28;20027;-79
2022/10/21 00:18:04;;;;;;;4.75;2.00;;;;;;;;;;5050852;28;20024;-78
2022/10/21 00:20:30;;;;;;;7.90;2.60;;;;;;;;;;5033446;28;20050;-77
2022/10/21 00:22:55;;;;;;;3.90;2.25;;;;;;;;;;5026428;28;20381;-77
2022/10/21 00:25:20;;;;;;;4.73;2.20;;;;;;;;;;5026627;28;20094;-78
2022/10/21 00:27:45;;;;;;;4.85;2.55;;;;;;;;;;5025297;28;21171;-79
2022/10/21 00:30:11;;;;;;;5.63;1.92;;;;;;;;;;5016042;28;20021;-78
2022/10/21 00:32:36;;;;;;;8.07;2.55;;;;;;;;;;5010121;28;20073;-79
2022/10/21 00:35:02;;;;;;;3.47;1.98;;;;;;;;;;5033474;28;20028;-79
2022/10/21 00:37:31;;;;;;;4.22;1.75;;;;;;;;;;5030026;28;20040;-79
2022/10/21 00:39:56;;;;;;;9.00;2.63;;;;;;;;;;5056246;28;20178;-80
2022/10/21 00:42:22;;;;;;;8.32;2.40;;;;;;;;;;5027973;28;20024;-78
2022/10/21 00:45:05;;;;;;;6.95;2.67;;;;;;;;;;5023995;28;20797;-74
2022/10/21 00:47:32;;;;;;;5.03;2.22;;;;;;;;;;5022666;28;20572;-76
2022/10/21 00:50:00;;;;;;;5.75;2.78;;;;;;;;;;5015466;28;20055;-76
2022/10/21 00:52:26;;;;;;;4.38;2.22;;;;;;;;;;5026489;28;20028;-77
2022/10/21 00:54:53;;;;;;;3.97;2.05;;;;;;;;;;5026844;28;20922;-76
2022/10/21 00:57:20;;;;;;;5.82;2.45;;;;;;;;;;5022493;28;20020;-76
2022/10/21 00:59:47;;;;;;;4.43;1.85;;;;;;;;;;5026073;28;20020;-76
2022/10/21 01:02:13;;;;;;;7.43;2.00;;;;;;;;;;5027146;28;20031;-77
2022/10/21 01:04:38;;;;;;;7.90;1.80;;;;;;;;;;5026189;28;20020;-76
2022/10/21 01:07:04;;;;;;;4.95;1.85;;;;;;;;;;5027760;28;20438;-80
2022/10/21 01:09:29;;;;;;;2.40;1.20;;;;;;;;;;5026987;28;20971;-79
2022/10/21 01:11:55;;;;;;;4.35;1.75;;;;;;;;;;5027817;28;20020;-78
2022/10/21 01:14:23;;;;;;;4.15;1.75;;;;;;;;;;5061600;28;20044;-68
2022/10/21 01:17:00;;;;;;;10.05;2.28;;;;;;;;;;5025495;28;20048;-77
2022/10/21 01:19:44;;;;;;;3.95;1.52;;;;;;;;;;5023012;28;20037;-76
2022/10/21 01:22:28;;;;;;;8.85;1.55;;;;;;;;;;5038016;28;20807;-76
2022/10/21 01:24:59;;;;;;;16.23;2.38;;;;;;;;;;5043114;28;20028;-77
2022/10/21 01:27:29;;;;;;;5.80;1.67;;;;;;;;;;5022962;28;20931;-76
2022/10/21 01:30:05;;;;;;;8.75;1.55;;;;;;;;;;5026343;28;20024;-78
2022/10/21 01:32:33;;;;;;;4.53;1.63;;;;;;;;;;5026996;28;20040;-77
2022/10/21 01:35:24;;;;;;;9.40;1.88;;;;;;;;;;5020507;28;20025;-78
2022/10/21 01:37:53;;;;;;;7.13;1.73;;;;;;;;;;5023646;28;20924;-78
2022/10/21 01:40:33;;;;;;;6.28;2.28;;;;;;;;;;5027537;28;20846;-78
2022/10/21 01:43:18;;;;;;;7.25;2.08;;;;;;;;;;5025107;28;20137;-77
2022/10/21 01:45:43;;;;;;;;;;;;;;;;;;5026748;28;20104;-77
2022/10/21 01:48:12;;;;;;;6.18;1.73;;;;;;;;;;5059954;28;19908;-78
2022/10/21 01:50:40;;;;;;;8.75;2.00;;;;;;;;;;5059774;28;20024;-77
2022/10/21 01:53:08;;;;;;;3.50;1.40;;;;;;;;;;5026743;28;20089;-77
2022/10/21 01:55:35;;;;;;;5.40;1.88;;;;;;;;;;5058719;28;20016;-78
2022/10/21 01:58:06;;;;;;;4.72;1.40;;;;;;;;;;5023194;28;20024;-77
2022/10/21 02:00:32;;;;;;;5.65;2.08;;;;;;;;;;5025338;28;20032;-78
2022/10/21 02:02:59;;;;;;;9.05;1.85;;;;;;;;;;5043763;28;20016;-77
2022/10/21 02:05:27;;;;;;;6.32;2.33;;;;;;;;;;5058356;28;20077;-78
2022/10/21 02:07:53;;;;;;;6.07;1.83;;;;;;;;;;5044504;28;20024;-78
2022/10/21 02:10:18;;;;;;;5.63;1.75;;;;;;;;;;5025414;28;20064;-79
2022/10/21 02:12:46;;;;;;;5.10;1.90;;;;;;;;;;5056075;28;20038;-78
2022/10/21 02:15:12;;;;;;;5.00;1.38;;;;;;;;;;5022424;28;20244;-78
2022/10/21 02:17:39;;;;;;;4.18;1.90;;;;;;;;;;5055739;28;20907;-78
2022/10/21 02:20:08;;;;;;;2.58;1.27;;;;;;;;;;5024051;28;20032;-78
2022/10/21 02:22:34;;;;;;;9.88;2.10;;;;;;;;;;5025630;28;20459;-78
2022/10/21 02:25:07;;;;;;;4.90;1.98;;;;;;;;;;5022180;28;20024;-78
2022/10/21 02:27:33;;;;;;;7.35;1.55;;;;;;;;;;5023473;28;20033;-79
2022/10/21 02:29:59;;;;;;;3.97;1.65;;;;;;;;;;5027181;28;20067;-78
2022/10/21 02:32:30;;;;;;;4.15;1.35;;;;;;;;;;5046160;28;20029;-78
2022/10/21 02:34:55;;;;;;;5.95;1.90;;;;;;;;;;5031923;28;20189;-78
2022/10/21 02:37:42;;;;;;;4.15;1.60;;;;;;;;;;5030684;28;20296;-78
2022/10/21 02:40:19;;;;;;;4.63;1.77;;;;;;;;;;5048993;28;20067;-76
2022/10/21 02:42:46;;;;;;;4.45;1.73;;;;;;;;;;5048878;28;20118;-76
2022/10/21 02:45:12;;;;;;;8.73;2.08;;;;;;;;;;5031586;28;20021;-76
2022/10/21 02:47:37;;;;;;;4.75;1.70;;;;;;;;;;5050376;28;20067;-76
2022/10/21 02:50:03;;;;;;;7.00;1.85;;;;;;;;;;5032360;28;20028;-76
2022/10/21 02:52:28;;;;;;;4.07;1.90;;;;;;;;;;5030820;28;20842;-78
2022/10/21 02:54:53;;;;;;;4.55;1.45;;;;;;;;;;5031436;28;20020;-78
2022/10/21 02:57:19;;;;;;;3.05;1.20;;;;;;;;;;5033593;28;20025;-78
2022/10/21 02:59:44;;;;;;;5.65;1.67;;;;;;;;;;5030380;28;20552;-78
2022/10/21 03:02:09;;;;;;;8.73;1.52;;;;;;;;;;5033399;28;20044;-78
2022/10/21 03:04:34;;;;;;;3.58;1.60;;;;;;;;;;5032767;28;20032;-78
2022/10/21 03:07:00;;;;;;;10.52;1.85;;;;;;;;;;5032948;28;20753;-78
2022/10/21 03:09:25;;;;;;;5.53;1.90;;;;;;;;;;5031118;28;21102;-78
2022/10/21 03:11:50;;;;;;;10.18;1.35;;;;;;;;;;5050809;28;20016;-78
2022/10/21 03:14:15;;;;;;;2.88;1.13;;;;;;;;;;5031612;28;20138;-78
2022/10/21 03:16:41;;;;;;;4.97;1.83;;;;;;;;;;5033397;28;20024;-78
2022/10/21 03:19:06;;;;;;;3.83;1.77;;;;;;;;;;5032117;28;20326;-78
2022/10/21 03:21:31;;;;;;;3.15;1.40;;;;;;;;;;5034213;28;20758;-78
2022/10/21 03:23:56;;;;;;;4.72;1.60;;;;;;;;;;5051473;28;20017;-78
2022/10/21 03:26:21;;;;;;;3.33;1.60;;;;;;;;;;5028063;28;20845;-78
2022/10/21 03:28:47;;;;;;;5.87;1.10;;;;;;;;;;5047019;28;20793;-78
2022/10/21 03:31:12;;;;;;;4.40;1.70;;;;;;;;;;5026522;28;20310;-78
2022/10/21 03:33:37;;;;;;;5.20;1.60;;;;;;;;;;5033353;28;20020;-78
2022/10/21 03:36:03;;;;;;;7.28;1.80;;;;;;;;;;5026899;28;20128;-76
2022/10/21 03:38:28;;;;;;;4.25;1.77;;;;;;;;;;5048638;28;20056;-79
2022/10/21 03:40:54;;;;;;;8.93;1.90;;;;;;;;;;5012707;28;20581;-79
2022/10/21 03:43:19;;;;;;;4.10;1.65;;;;;;;;;;5031252;28;20352;-83
2022/10/21 03:45:45;;;;;;;35.63;6.43;;;;;;;;;;5035437;28;20024;-83
2022/10/21 03:48:11;;;;;;;6.50;2.10;;;;;;;;;;5043366;28;20267;-82
2022/10/21 03:50:36;;;;;;;4.03;1.50;;;;;;;;;;5061307;28;20051;-82
2022/10/21 03:53:01;;;;;;;4.00;1.90;;;;;;;;;;5057086;28;20132;-82
2022/10/21 03:55:27;;;;;;;5.50;1.73;;;;;;;;;;5052791;28;20035;-85
2022/10/21 03:57:52;;;;;;;5.38;2.05;;;;;;;;;;5057936;28;20087;-84
2022/10/21 04:00:18;;;;;;;5.95;1.75;;;;;;;;;;5034981;28;20033;-82
2022/10/21 04:02:43;;;;;;;4.40;2.00;;;;;;;;;;5060472;28;20078;-83
2022/10/21 04:05:09;;;;;;;4.32;1.92;;;;;;;;;;5040092;28;20036;-83
2022/10/21 04:07:34;;;;;;;5.07;1.83;;;;;;;;;;5040414;28;20029;-84
2022/10/21 04:09:59;;;;;;;5.50;1.90;;;;;;;;;;5038066;28;20492;-83
2022/10/21 04:12:24;;;;;;;6.57;2.10;;;;;;;;;;5039135;28;20020;-83
2022/10/21 04:14:50;;;;;;;6.35;2.75;;;;;;;;;;5042471;28;20278;-81
2022/10/21 04:17:15;;;;;;;4.30;1.55;;;;;;;;;;5046200;28;20941;-83
2022/10/21 04:19:40;;;;;;;5.53;2.47;;;;;;;;;;5050202;28;20028;-84
2022/10/21 04:22:05;;;;;;;10.70;2.67;;;;;;;;;;5038558;28;20048;-79
2022/10/21 04:24:31;;;;;;;5.80;2.33;;;;;;;;;;5033585;28;20020;-75
2022/10/21 04:26:56;;;;;;;4.07;1.63;;;;;;;;;;5034778;28;20027;-83
2022/10/21 04:29:21;;;;;;;4.65;2.00;;;;;;;;;;5033642;28;20831;-82
2022/10/21 04:31:47;;;;;;;5.28;1.75;;;;;;;;;;5036301;28;20051;-83
2022/10/21 04:34:12;;;;;;;5.28;2.00;;;;;;;;;;5051910;28;20081;-83
2022/10/21 04:36:37;;;;;;;5.88;2.40;;;;;;;;;;5031869;28;20655;-83
2022/10/21 04:39:02;;;;;;;4.60;1.77;;;;;;;;;;5030500;28;20070;-83
2022/10/21 04:41:28;;;;;;;6.78;2.25;;;;;;;;;;5036630;28;20021;-83
2022/10/21 04:43:53;;;;;;;8.43;2.72;;;;;;;;;;5047535;28;20474;-84
2022/10/21 04:46:19;;;;;;;3.80;1.95;;;;;;;;;;5074470;28;20086;-83
2022/10/21 04:48:45;;;;;;;5.43;2.08;;;;;;;;;;5055675;28;20028;-83
2022/10/21 04:51:10;;;;;;;5.00;2.13;;;;;;;;;;5043283;28;20531;-82
2022/10/21 04:53:35;;;;;;;4.78;2.50;;;;;;;;;;5073570;28;20083;-82
2022/10/21 04:56:00;;;;;;;6.32;2.33;;;;;;;;;;5055302;28;20024;-83
2022/10/21 04:58:26;;;;;;;7.85;2.40;;;;;;;;;;5055213;28;20359;-80
2022/10/21 05:00:51;;;;;;;3.90;2.15;;;;;;;;;;5059083;28;20103;-81
2022/10/21 05:03:17;;;;;;;9.00;2.30;;;;;;;;;;5055248;28;20095;-81
2022/10/21 05:05:42;;;;;;;4.38;2.22;;;;;;;;;;5051964;28;20020;-81
2022/10/21 05:08:07;;;;;;;5.28;2.58;;;;;;;;;;5055501;28;20466;-81
2022/10/21 05:10:33;;;;;;;8.10;2.28;;;;;;;;;;5055810;28;20020;-81
2022/10/21 05:12:58;;;;;;;17.05;2.70;;;;;;;;;;5052691;28;20036;-82
2022/10/21 05:15:24;;;;;;;5.30;2.30;;;;;;;;;;5073865;28;20082;-81
2022/10/21 05:17:50;;;;;;;6.60;2.83;;;;;;;;;;5030916;28;20031;-81
2022/10/21 05:20:15;;;;;;;4.85;2.30;;;;;;;;;;5056502;28;20024;-82
2022/10/21 05:22:40;;;;;;;10.45;3.08;;;;;;;;;;5055085;28;20402;-82
2022/10/21 05:25:06;;;;;;;5.35;2.42;;;;;;;;;;5071298;28;20016;-83
2022/10/21 05:27:31;;;;;;;6.60;2.53;;;;;;;;;;5053431;28;20035;-83
2022/10/21 05:29:57;;;;;;;8.38;3.05;;;;;;;;;;5036455;28;20383;-82
2022/10/21 05:32:22;;;;;;;4.50;2.60;;;;;;;;;;5070068;28;20055;-82
2022/10/21 05:34:47;;;;;;;9.50;3.45;;;;;;;;;;5072763;28;20498;-82
2022/10/21 05:37:13;;;;;;;4.25;2.38;;;;;;;;;;5052452;28;20036;-82
2022/10/21 05:39:38;;;;;;;7.53;2.65;;;;;;;;;;5054168;28;20103;-83
2022/10/21 05:42:03;;;;;;;6.22;2.85;;;;;;;;;;5072629;28;20475;-82
2022/10/21 05:44:28;;;;;;;10.40;2.88;;;;;;;;;;5072175;28;20039;-82
2022/10/21 05:46:54;;;;;;;6.35;2.75;;;;;;;;;;5052697;28;20017;-82
2022/10/21 05:49:19;;;;;;;8.35;2.70;;;;;;;;;;5054548;28;20136;-82
2022/10/21 05:51:44;;;;;;;8.13;2.90;;;;;;;;;;5054562;28;20017;-83
2022/10/21 05:54:09;;;;;;;8.32;2.97;;;;;;;;;;5072339;28;20024;-82
2022/10/21 05:56:35;;;;;;;8.23;3.42;;;;;;;;;;5054308;28;20018;-83
2022/10/21 05:59:00;;;;;;;10.85;3.22;;;;;;;;;;5054199;28;20031;-83
2022/10/21 06:01:26;;;;;;;6.82;2.97;;;;;;;;;;5053363;28;20052;-83
2022/10/21 06:03:51;;;;;;;6.50;2.92;;;;;;;;;;5069169;28;20025;-81
2022/10/21 06:06:16;;;;;;;20.48;5.57;;;;;;;;;;5068219;28;20062;-78
2022/10/21 06:08:41;;;;;;;11.73;4.70;;;;;;;;;;5050209;28;20383;-77
2022/10/21 06:11:11;;;;;;;12.52;5.50;;;;;;;;;;5054327;28;20052;-77
2022/10/21 06:13:37;;;;;;;10.05;5.65;;;;;;;;;;5071974;28;20024;-75
2022/10/21 06:16:03;;;;;;;14.23;4.72;;;;;;;;;;5053569;28;20027;-76
2022/10/21 06:18:28;;;;;;;16.10;4.93;;;;;;;;;;5048873;28;20360;-76
2022/10/21 06:20:54;;;;;;;8.07;3.70;;;;;;;;;;5071437;28;20020;-76
2022/10/21 06:23:19;;;;;;;9.65;4.85;;;;;;;;;;5071278;28;20100;-74
2022/10/21 06:26:00;;;;;;;9.30;5.13;;;;;;;;;;5053463;28;20016;-75
2022/10/21 06:28:25;;;;;;;7.63;4.45;;;;;;;;;;5071203;28;20533;-76
2022/10/21 06:30:51;;;;;;;9.32;4.75;;;;;;;;;;5071202;28;20032;-75
2022/10/21 06:33:16;;;;;;;8.27;4.85;;;;;;;;;;5048599;28;20021;-78
2022/10/21 06:35:41;;;;;;;9.23;5.03;;;;;;;;;;5061889;28;20048;-78
2022/10/21 06:38:07;;;;;;;10.88;5.40;;;;;;;;;;5049536;28;20028;-78
2022/10/21 06:40:32;;;;;;;14.23;6.05;;;;;;;;;;5073222;28;20056;-78
2022/10/21 06:42:58;;;;;;;7.15;4.95;;;;;;;;;;5053357;28;20434;-78
2022/10/21 06:45:23;;;;;;;9.10;4.97;;;;;;;;;;5071476;28;20025;-78
2022/10/21 06:47:49;;;;;;;12.68;5.50;;;;;;;;;;5071752;28;20039;-78
2022/10/21 06:50:14;;;;;;;9.55;5.43;;;;;;;;;;5053286;28;20486;-79
2022/10/21 06:52:39;;;;;;;10.98;5.07;;;;;;;;;;5069450;28;20024;-80
2022/10/21 06:55:05;;;;;;;8.75;5.68;;;;;;;;;;5071058;28;20019;-81
2022/10/21 06:57:31;;;;;;;7.82;5.30;;;;;;;;;;5056508;28;20029;-83
2022/10/21 06:59:56;;;;;;;6.43;4.93;;;;;;;;;;5053886;28;20413;-82
2022/10/21 07:02:23;;;;;;;14.60;5.63;;;;;;;;;;5073373;28;20031;-83
2022/10/21 07:04:48;;;;;;;11.73;5.63;;;;;;;;;;5072631;28;20263;-81
2022/10/21 07:07:14;;;;;;;9.95;5.25;;;;;;;;;;5023940;28;20017;-82
2022/10/21 07:09:39;;;;;;;10.00;5.53;;;;;;;;;;5023453;28;20016;-83
2022/10/21 07:12:04;;;;;;;8.57;4.83;;;;;;;;;;5024009;28;20028;-83
2022/10/21 07:14:30;;;;;;;16.75;5.43;;;;;;;;;;5025483;28;20270;-81
2022/10/21 07:16:55;;;;;;;8.05;4.70;;;;;;;;;;5026683;28;20047;-81
2022/10/21 07:19:20;;;;;;;6.10;4.63;;;;;;;;;;5023096;28;20035;-82
2022/10/21 07:21:45;;;;;;;12.75;5.20;;;;;;;;;;5031385;28;20138;-82
2022/10/21 07:24:11;;;;;;;10.35;6.20;;;;;;;;;;5036360;28;20031;-81
2022/10/21 07:26:36;;;;;;;13.50;7.03;;;;;;;;;;5043652;28;20025;-80
2022/10/21 07:29:02;;;;;;;10.35;5.70;;;;;;;;;;5037524;28;20041;-82
2022/10/21 07:31:29;;;;;;;9.73;6.00;;;;;;;;;;5027018;28;20024;-82
2022/10/21 07:33:55;;;;;;;12.82;5.57;;;;;;;;;;5021649;28;20795;-82
2022/10/21 07:36:21;;;;;;;9.65;6.35;;;;;;;;;;5030109;28;20028;-82
2022/10/21 07:38:47;;;;;;;8.77;5.72;;;;;;;;;;5023076;28;20040;-81
2022/10/21 07:41:14;;;;;;;7.82;6.00;;;;;;;;;;5030210;28;20020;-81
2022/10/21 07:43:39;;;;;;;14.48;5.68;;;;;;;;;;5028876;28;20757;-81
2022/10/21 07:46:05;;;;;;;16.47;6.87;;;;;;;;;;5030664;28;20078;-81
2022/10/21 07:48:30;;;;;;;10.75;5.57;;;;;;;;;;5031418;28;21238;-81
2022/10/21 07:51:01;;;;;;;15.10;6.03;;;;;;;;;;5025283;28;20012;-82
2022/10/21 07:53:26;;;;;;;9.82;6.03;;;;;;;;;;5029105;28;20266;-81
2022/10/21 07:56:00;;;;;;;12.75;5.95;;;;;;;;;;5032285;28;20028;-81
2022/10/21 07:58:25;;;;;;;8.68;5.30;;;;;;;;;;5040011;28;20032;-80
2022/10/21 08:00:50;;;;;;;11.65;5.97;;;;;;;;;;5011220;28;20884;-80
2022/10/21 08:03:15;;;;;;;8.70;5.80;;;;;;;;;;5059124;28;20029;-80
2022/10/21 08:05:41;;;;;;;11.77;6.37;;;;;;;;;;5028466;28;20278;-80
2022/10/21 08:08:06;;;;;;;12.45;6.60;;;;;;;;;;5031455;28;20286;-82
2022/10/21 08:10:31;;;;;;;10.07;6.20;;;;;;;;;;5043082;28;20506;-80
2022/10/21 08:12:56;;;;;;;10.40;6.93;;;;;;;;;;5030927;28;21019;-80
2022/10/21 08:15:22;;;;;;;16.83;7.47;;;;;;;;;;5029162;28;20266;-81
2022/10/21 08:17:47;;;;;;;12.87;7.97;;;;;;;;;;5032402;28;20290;-81
2022/10/21 08:20:12;;;;;;;12.88;8.13;;;;;;;;;;5021241;28;20266;-81
2022/10/21 08:22:37;;;;;;;12.57;7.28;;;;;;;;;;5031835;28;20486;-82
2022/10/21 08:25:03;;;;;;;10.30;7.45;;;;;;;;;;5034019;28;20808;-82
2022/10/21 08:27:28;;;;;;;12.32;8.00;;;;;;;;;;5033502;28;20024;-81
2022/10/21 08:29:54;;;;;;;12.30;7.57;;;;;;;;;;5031271;28;20022;-82
2022/10/21 08:32:19;;;;;;;9.85;7.65;;;;;;;;;;5030136;28;20029;-83
2022/10/21 08:34:44;;;;;;;10.75;7.72;;;;;;;;;;5031900;28;20781;-83
2022/10/21 08:37:09;;;;;;;13.47;7.07;;;;;;;;;;5034299;28;20035;-83
2022/10/21 08:39:35;;;;;;;12.82;7.82;;;;;;;;;;5030029;28;20282;-83
2022/10/21 08:42:16;;;;;;;11.30;7.47;;;;;;;;;;5030061;28;20032;-83
2022/10/21 08:44:59;;;;;;;10.30;7.47;;;;;;;;;;5030806;28;20262;-82
2022/10/21 08:47:46;;;;;;;12.50;8.10;;;;;;;;;;5030328;28;20012;-84
2022/10/21 08:50:12;;;;;;;12.80;7.05;;;;;;;;;;5032303;28;20029;-83
2022/10/21 08:52:47;;;;;;;8.45;6.22;;;;;;;;;;5046343;28;20024;-82
2022/10/21 08:55:20;;;;;;;17.10;6.70;;;;;;;;;;5030736;28;20087;-83
2022/10/21 08:57:49;;;;;;;14.43;5.60;;;;;;;;;;5030355;28;20032;-83
2022/10/21 09:00:14;;;;;;;13.00;6.28;;;;;;;;;;5030628;28;20033;-84
2022/10/21 09:02:49;;;;;;;9.52;6.30;;;;;;;;;;5065477;28;20039;-83
2022/10/21 09:05:17;;;;;;;11.75;6.22;;;;;;;;;;5041819;28;20813;-83
2022/10/21 09:08:06;;;;;;;9.70;6.18;;;;;;;;;;5017359;28;20127;-84
2022/10/21 09:10:46;;;;;;;11.23;6.13;;;;;;;;;;5007833;28;20115;-83
2022/10/21 09:13:37;;;;;;;9.60;5.53;;;;;;;;;;5032269;28;20892;-84
2022/10/21 09:16:03;;;;;;;7.72;5.22;;;;;;;;;;5032877;28;20036;-84
2022/10/21 09:18:33;;;;;;;10.80;5.43;;;;;;;;;;5046304;28;20044;-84
2022/10/21 09:21:17;;;;;;;11.05;6.45;;;;;;;;;;5035428;28;20369;-83
2022/10/21 09:23:43;;;;;;;;;;;;;;;;;;5032203;28;20020;-82
2022/10/21 09:26:17;;;;;;;11.70;4.75;;;;;;;;;;5063282;28;19908;-82
2022/10/21 09:28:44;;;;;;;12.00;6.13;;;;;;;;;;5028850;28;20052;-81
2022/10/21 09:31:16;;;;;;;6.88;4.80;;;;;;;;;;5057543;28;20135;-81
2022/10/21 09:33:43;;;;;;;12.68;5.43;;;;;;;;;;5018798;28;20870;-82
2022/10/21 09:36:23;;;;;;;10.73;5.00;;;;;;;;;;5027120;28;20123;-81
2022/10/21 09:38:57;;;;;;;7.28;4.53;;;;;;;;;;5028060;28;20029;-81
2022/10/21 09:41:25;;;;;;;7.07;4.90;;;;;;;;;;5046769;28;20025;-81
2022/10/21 09:43:50;;;;;;;14.20;4.97;;;;;;;;;;5027989;28;20794;-82
2022/10/21 09:46:16;;;;;;;12.93;5.45;;;;;;;;;;5030942;28;20016;-83
2022/10/21 09:48:41;;;;;;;6.82;4.45;;;;;;;;;;5018686;28;20024;-80
2022/10/21 09:51:12;;;;;;;9.13;4.18;;;;;;;;;;5013579;28;20083;-81
2022/10/21 09:53:44;;;;;;;9.80;3.90;;;;;;;;;;5025017;28;20139;-82
2022/10/21 09:56:24;;;;;;;5.90;3.08;;;;;;;;;;5031655;28;20127;-81
2022/10/21 09:58:50;;;;;;;5.80;3.40;;;;;;;;;;5024755;28;20017;-84
2022/10/21 10:01:22;;;;;;;6.10;2.85;;;;;;;;;;5025511;28;20043;-83
2022/10/21 10:03:48;;;;;;;4.57;2.03;;;;;;;;;;5026439;28;20021;-84
2022/10/21 10:06:28;;;;;;;3.83;1.90;;;;;;;;;;5027476;28;20409;-82
2022/10/21 10:09:03;;;;;;;4.97;2.13;;;;;;;;;;5027767;28;20073;-83
2022/10/21 10:11:29;;;;;;;4.45;1.80;;;;;;;;;;5026658;28;20529;-81
2022/10/21 10:13:54;;;;;;;4.63;1.88;;;;;;;;;;5043019;28;20028;-80
2022/10/21 10:16:21;;;;;;;3.90;1.37;;;;;;;;;;5021957;28;20020;-78
2022/10/21 10:18:47;;;;;;;4.65;1.35;;;;;;;;;;5020921;28;20302;-80
2022/10/21 10:21:17;;;;;;;3.63;1.15;;;;;;;;;;5052958;28;20029;-78
2022/10/21 10:23:47;;;;;;;2.50;0.82;;;;;;;;;;5018404;28;20013;-78
2022/10/21 10:26:21;;;;;;;2.80;1.00;;;;;;;;;;5028985;28;20060;-80
2022/10/21 10:28:50;;;;;;;1.90;0.90;;;;;;;;;;5030836;28;20023;-76
2022/10/21 10:31:30;;;;;;;8.70;1.08;;;;;;;;;;5022301;28;20028;-72
2022/10/21 10:34:02;;;;;;;2.92;0.88;;;;;;;;;;5043030;28;20104;-76
2022/10/21 10:36:29;;;;;;;2.17;0.80;;;;;;;;;;5024037;28;20071;-77
2022/10/21 10:38:56;;;;;;;3.08;1.08;;;;;;;;;;5022429;28;20055;-77
2022/10/21 10:41:27;;;;;;;2.10;0.82;;;;;;;;;;5022459;28;20017;-76
2022/10/21 10:43:53;;;;;;;2.40;1.00;;;;;;;;;;5042895;28;20066;-78
2022/10/21 10:46:23;;;;;;;2.63;0.88;;;;;;;;;;5016280;28;20009;-73
2022/10/21 10:48:50;;;;;;;2.25;0.98;;;;;;;;;;5007520;28;20071;-74
2022/10/21 10:51:35;;;;;;;2.25;0.77;;;;;;;;;;5042170;28;20035;-72
2022/10/21 10:54:16;;;;;;;2.45;0.68;;;;;;;;;;5030684;28;20889;-75
2022/10/21 10:56:54;;;;;;;3.78;1.00;;;;;;;;;;5044137;28;20024;-76
2022/10/21 10:59:22;;;;;;;1.83;0.80;;;;;;;;;;5044259;28;20063;-75
2022/10/21 11:01:50;;;;;;;1.77;0.43;;;;;;;;;;5039616;28;20488;-75
2022/10/21 11:04:19;;;;;;;7.38;0.70;;;;;;;;;;5042776;28;20550;-76
2022/10/21 11:06:51;;;;;;;2.22;0.73;;;;;;;;;;5034257;28;20077;-77
2022/10/21 11:09:18;;;;;;;2.58;0.70;;;;;;;;;;5041238;28;20015;-80
2022/10/21 11:11:45;;;;;;;1.20;0.50;;;;;;;;;;5035964;28;20096;-79
2022/10/21 11:14:14;;;;;;;1.58;0.45;;;;;;;;;;5055188;28;20114;-78
2022/10/21 11:16:52;;;;;;;1.52;0.60;;;;;;;;;;5020469;28;20027;-72
2022/10/21 11:19:20;;;;;;;2.95;0.43;;;;;;;;;;5047429;28;20132;-71
2022/10/21 11:21:47;;;;;;;1.45;0.50;;;;;;;;;;5047113;28;20033;-77
2022/10/21 11:24:30;;;;;;;2.60;0.60;;;;;;;;;;5019406;28;20142;-77
2022/10/21 11:27:03;;;;;;;1.95;0.82;;;;;;;;;;5021318;28;20131;-77
2022/10/21 11:29:28;;;;;;;3.00;1.17;;;;;;;;;;5012503;28;20947;-75
2022/10/21 11:31:59;;;;;;;3.07;0.63;;;;;;;;;;5022553;28;20025;-79
2022/10/21 11:34:30;;;;;;;1.90;0.73;;;;;;;;;;5010086;28;20302;-78
2022/10/21 11:37:05;;;;;;;6.32;0.55;;;;;;;;;;5023526;28;20029;-79
2022/10/21 11:39:30;;;;;;;;;;;;;;;;;;5021330;28;20131;-76
2022/10/21 11:42:09;;;;;;;2.70;0.60;;;;;;;;;;5055751;28;20852;-76
2022/10/21 11:44:45;;;;;;;1.60;0.70;;;;;;;;;;5015565;28;20222;-80
2022/10/21 11:47:26;;;;;;;1.30;0.50;;;;;;;;;;5056268;28;20118;-79
2022/10/21 11:50:10;;;;;;;3.30;0.82;;;;;;;;;;5024180;28;20034;-75
2022/10/21 11:52:35;;;;;;;1.98;0.52;;;;;;;;;;5060011;28;20122;-76
2022/10/21 11:55:00;;;;;;;3.73;0.87;;;;;;;;;;5043285;28;20020;-74
2022/10/21 11:57:35;;;;;;;1.67;0.50;;;;;;;;;;5037686;28;20024;-77
2022/10/21 12:00:00;;;;;;;;;;;;;;;;;;5037340;28;20899;-76
2022/10/21 12:08:14;;;;;;;6.75;0.80;;;;;;;;;;5003842;28;20083;-77
2022/10/21 12:10:45;;;;;;;2.40;0.68;;;;;;;;;;5000169;28;20036;-75
2022/10/21 12:18:25;;;;;;;2.72;0.70;;;;;;;;;;5003008;28;20864;-79
2022/10/21 12:20:51;;;;;;;2.30;0.70;;;;;;;;;;4983586;28;20510;-77
2022/10/21 12:23:19;;;;;;;3.85;1.33;;;;;;;;;;4993898;28;20044;-76
2022/10/21 12:25:44;;;;;;;2.50;0.98;;;;;;;;;;4994755;28;20030;-77
2022/10/21 12:28:22;;;;;;;3.60;1.10;;;;;;;;;;5001350;28;20017;-69
2022/10/21 12:30:52;;;;;;;4.28;1.27;;;;;;;;;;5005699;28;20279;-72
2022/10/21 12:33:37;;;;;;;2.45;0.90;;;;;;;;;;5007234;28;20029;-71
2022/10/21 12:36:21;;;;;;;4.18;0.80;;;;;;;;;;5003202;28;20045;-74
2022/10/21 12:38:47;;;;;;;2.37;0.90;;;;;;;;;;4994278;28;20130;-74
2022/10/21 12:41:21;;;;;;;7.97;3.10;;;;;;;;;;5005241;28;20479;-74
2022/10/21 12:44:04;;;;;;;4.93;0.88;;;;;;;;;;5003937;28;20056;-71
2022/10/21 12:46:35;;;;;;;4.93;1.25;;;;;;;;;;5000987;28;20202;-76
2022/10/21 12:49:03;;;;;;;3.83;1.60;;;;;;;;;;5007081;28;20631;-77
2022/10/21 12:51:29;;;;;;;5.47;0.82;;;;;;;;;;4985072;28;20029;-74
2022/10/21 12:53:54;;;;;;;3.88;1.00;;;;;;;;;;5002056;28;20025;-77
2022/10/21 12:56:26;;;;;;;2.85;1.20;;;;;;;;;;4990824;28;20516;-74
2022/10/21 12:58:55;;;;;;;3.47;1.25;;;;;;;;;;5018872;28;20029;-77
2022/10/21 13:01:33;;;;;;;4.05;1.20;;;;;;;;;;5016900;28;20021;-79
2022/10/21 13:03:58;;;;;;;3.58;1.08;;;;;;;;;;5013815;28;20044;-80
2022/10/21 13:07:00;;;;;;;3.53;1.13;;;;;;;;;;5015119;28;20021;-79
2022/10/21 13:09:32;;;;;;;2.75;0.95;;;;;;;;;;4925504;28;20027;-79
2022/10/21 13:12:06;;;;;;;5.63;1.00;;;;;;;;;;4996826;28;20041;-77
2022/10/21 13:14:38;;;;;;;1.98;0.85;;;;;;;;;;5009165;28;20055;-77
2022/10/21 13:17:14;;;;;;;4.85;1.33;;;;;;;;;;5005504;28;20864;-80
2022/10/21 13:19:40;;;;;;;2.30;0.93;;;;;;;;;;5010609;28;20041;-79
2022/10/21 13:22:13;;;;;;;3.05;0.90;;;;;;;;;;5010384;28;20077;-80
2022/10/21 13:24:40;;;;;;;2.95;0.80;;;;;;;;;;5005019;28;20406;-80
2022/10/21 13:27:23;;;;;;;2.42;0.95;;;;;;;;;;5009194;28;20546;-77
2022/10/21 13:29:49;;;;;;;8.20;1.13;;;;;;;;;;5007520;28;20022;-79
2022/10/21 13:32:16;;;;;;;3.05;0.90;;;;;;;;;;5009569;28;20084;-79
2022/10/21 13:34:50;;;;;;;4.40;1.10;;;;;;;;;;4997905;28;20013;-81
2022/10/21 13:37:15;;;;;;;;;;;;;;;;;;4975612;28;20100;-80
2022/10/21 13:39:41;;;;;;;4.07;0.80;;;;;;;;;;4991833;28;19913;-80
2022/10/21 13:42:09;;;;;;;1.60;0.75;;;;;;;;;;4996562;28;20128;-79
2022/10/21 13:44:38;;;;;;;3.15;0.88;;;;;;;;;;4992453;28;20041;-78
2022/10/21 13:47:22;;;;;;;2.28;0.77;;;;;;;;;;4996413;28;20064;-80
2022/10/21 13:49:52;;;;;;;3.95;0.90;;;;;;;;;;4996088;28;20025;-84
2022/10/21 13:52:17;;;;;;;2.67;1.17;;;;;;;;;;4989824;28;20919;-81
2022/10/21 13:54:42;;;;;;;7.32;1.30;;;;;;;;;;4986285;28;20090;-79
2022/10/21 13:57:08;;;;;;;3.75;0.75;;;;;;;;;;4980332;28;20017;-83
2022/10/21 13:59:33;;;;;;;5.22;1.02;;;;;;;;;;5004709;28;20087;-77
2022/10/21 14:01:59;;;;;;;3.00;1.10;;;;;;;;;;4977632;28;20048;-82
2022/10/21 14:04:29;;;;;;;1.40;0.57;;;;;;;;;;4991640;28;20017;-78
2022/10/21 14:06:59;;;;;;;6.35;0.98;;;;;;;;;;4982642;28;20084;-80
2022/10/21 14:09:26;;;;;;;2.78;0.80;;;;;;;;;;4984178;28;20839;-81
2022/10/21 14:11:55;;;;;;;5.28;1.00;;;;;;;;;;4995510;28;20836;-80
2022/10/21 14:14:22;;;;;;;4.20;0.95;;;;;;;;;;5022236;28;20044;-81
2022/10/21 14:16:49;;;;;;;5.45;1.20;;;;;;;;;;5033640;28;20067;-82
2022/10/21 14:19:23;;;;;;;7.50;1.10;;;;;;;;;;5022780;28;20120;-81
2022/10/21 14:21:51;;;;;;;2.55;0.75;;;;;;;;;;5025918;28;20360;-77
2022/10/21 14:24:35;;;;;;;2.08;0.82;;;;;;;;;;5031005;28;20024;-78
2022/10/21 14:27:01;;;;;;;3.17;1.23;;;;;;;;;;5029670;28;20013;-78
2022/10/21 14:29:28;;;;;;;3.72;0.90;;;;;;;;;;5012148;28;20022;-79
2022/10/21 14:31:53;;;;;;;3.63;1.08;;;;;;;;;;5026747;28;20482;-78
2022/10/21 14:34:23;;;;;;;2.80;0.93;;;;;;;;;;5035678;28;20021;-75
2022/10/21 14:37:07;;;;;;;2.67;0.88;;;;;;;;;;5012651;28;20048;-75
2022/10/21 14:39:32;;;;;;;3.53;1.02;;;;;;;;;;5029285;28;20087;-74
2022/10/21 14:42:07;;;;;;;3.92;1.40;;;;;;;;;;5033197;28;20033;-78
2022/10/21 14:44:32;;;;;;;8.10;1.25;;;;;;;;;;5014516;28;20116;-76
2022/10/21 14:46:58;;;;;;;2.33;0.80;;;;;;;;;;5024655;28;20100;-76
2022/10/21 14:49:23;;;;;;;1.85;0.73;;;;;;;;;;5024821;28;20497;-75
2022/10/21 14:51:49;;;;;;;3.87;1.20;;;;;;;;;;5036145;28;20093;-76
2022/10/21 14:54:25;;;;;;;2.38;0.90;;;;;;;;;;5035989;28;20284;-78
2022/10/21 14:56:50;;;;;;;3.88;0.70;;;;;;;;;;5035456;28;20451;-78
2022/10/21 14:59:22;;;;;;;4.07;1.15;;;;;;;;;;5017783;28;20040;-83
2022/10/21 15:01:47;;;;;;;4.13;1.05;;;;;;;;;;5031968;28;20017;-83